Flight Track Log - Related Links

Times and Time Zones

All times are in EDT time to prevent confusion due to time zone crossing. See the ASH3732 flight status page for this flight to view local times or setup timezone preferences in your user account.

Time Position Orientation Groundspeed Altitude Reporting Facility
EDT Latitude Longitude Course Direction KTS MPH feet Rate Location/Type
Wed 08:53:23 AM 38.9167 -77.4333 218° Southwest 166 191 2,600  Level Potomac TRACON
Wed 08:54:24 AM 38.8667 -77.4833 218° Southwest 209 241 4,400 1,590 Climbing Potomac TRACON
Wed 08:56:09 AM 38.8506 -77.6200 261° West 258 297 7,000 957 Climbing Washington Center
Wed 08:57:07 AM 38.8533 -77.6975 273° West 270 311 7,000 908 Level Washington Center
Wed 08:58:08 AM 38.8533 -77.8094 270° West 270 311 8,800 1,918 Climbing Washington Center
Wed 08:59:09 AM 38.8517 -77.8975 269° West 270 311 10,900 2,218 Climbing Washington Center
Wed 09:00:07 AM 38.8539 -77.9933 272° West 270 311 13,200 2,218 Climbing Washington Center
Wed 09:01:08 AM 38.8539 -78.0975 270° West 277 319 15,300 1,820 Climbing Washington Center
Wed 09:02:09 AM 38.8542 -78.1800 270° West 282 325 16,900 1,475 Climbing Washington Center
Wed 09:03:06 AM 38.8536 -78.3106 270° West 297 342 18,200 1,160 Climbing Washington Center
Wed 09:04:08 AM 38.8508 -78.4253 268° West 314 361 19,200 1,033 Climbing Washington Center
Wed 09:05:08 AM 38.8503 -78.5397 270° West 319 367 20,300 1,091 Climbing Washington Center
Wed 09:06:09 AM 38.8494 -78.6569 270° West 329 379 21,400 689 Climbing Washington Center
Wed 09:07:10 AM 38.8469 -78.7528 268° West 329 379 21,700 300 Climbing Washington Center
Wed 09:08:09 AM 38.8447 -78.9075 269° West 349 402 22,000 550 Climbing Washington Center
Wed 09:09:10 AM 38.8431 -79.0458 269° West 373 429 22,800 864 Climbing Washington Center
Wed 09:10:07 AM 38.8411 -79.1792 269° West 378 435 23,700 915 Climbing Washington Center
Wed 09:11:08 AM 38.8389 -79.3175 269° West 383 441 24,600 836 Climbing Washington Center
Wed 09:12:09 AM 38.8378 -79.4214 269° West 383 441 25,400 893 Climbing Washington Center
Wed 09:13:09 AM 38.8347 -79.5786 269° West 383 441 26,400 1,017 Climbing Washington Center
Wed 09:14:07 AM 38.8322 -79.7197 269° West 383 441 27,400 958 Climbing Washington Center
Wed 09:15:08 AM 38.8294 -79.8581 269° West 383 441 28,300 885 Climbing Washington Center
Wed 09:16:09 AM 38.8242 -80.0044 267° West 396 456 29,200 671 Climbing Washington Center
Wed 09:17:40 AM 38.8169 -80.2158 268° West 411 473 30,000 314 Climbing Indianapolis Center
Wed 09:18:42 AM 38.8122 -80.3933 268° West 416 479 30,000  Level Indianapolis Center
Wed 09:19:44 AM 38.8078 -80.5428 268° West 418 481 30,000  Level Indianapolis Center
Wed 09:20:46 AM 38.8031 -80.6933 268° West 422 486 30,000  Level Indianapolis Center
Wed 09:21:48 AM 38.7986 -80.8417 268° West 419 482 30,000  Level Indianapolis Center
Wed 09:22:50 AM 38.7944 -80.9894 268° West 416 479 30,000  Level Indianapolis Center
Wed 09:23:52 AM 38.7892 -81.1386 267° West 418 481 30,000  Level Indianapolis Center
Wed 09:24:54 AM 38.7842 -81.2861 268° West 417 480 30,000  Level Indianapolis Center
Wed 09:25:56 AM 38.7778 -81.4572 267° West 419 482 30,000  Level Indianapolis Center
Wed 09:26:58 AM 38.7714 -81.6264 267° West 430 495 30,000  Level Indianapolis Center
Wed 09:28:00 AM 38.7661 -81.7633 267° West 436 502 30,000  Level Indianapolis Center
Wed 09:29:02 AM 38.7600 -81.9144 267° West 430 495 30,000  Level Indianapolis Center
Wed 09:30:04 AM 38.7522 -82.0953 267° West 425 489 30,000  Level Indianapolis Center
Wed 09:31:06 AM 38.7467 -82.2447 267° West 421 484 30,000  Level Indianapolis Center
Wed 09:32:08 AM 38.7406 -82.3925 267° West 418 481 30,000  Level Indianapolis Center
Wed 09:33:10 AM 38.7356 -82.5406 268° West 416 479 30,000  Level Indianapolis Center
Wed 09:34:12 AM 38.7283 -82.6875 266° West 414 476 30,000  Level Indianapolis Center
Wed 09:35:14 AM 38.7222 -82.8350 267° West 415 478 30,000  Level Indianapolis Center
Wed 09:36:16 AM 38.7144 -83.0111 267° West 414 476 30,000  Level Indianapolis Center
Wed 09:37:18 AM 38.7078 -83.1553 267° West 408 470 30,000  Level Indianapolis Center
Wed 09:38:20 AM 38.7011 -83.3061 267° West 401 461 30,000  Level Indianapolis Center
Wed 09:39:22 AM 38.6944 -83.4481 267° West 396 456 30,000  Level Indianapolis Center
Wed 09:40:24 AM 38.6869 -83.5897 266° West 394 453 30,000  Level Indianapolis Center
Wed 09:41:26 AM 38.6806 -83.7289 267° West 390 449 30,000  Level Indianapolis Center
Wed 09:42:28 AM 38.6731 -83.8703 266° West 393 452 30,000  Level Indianapolis Center
Wed 09:43:31 AM 38.6647 -84.0139 266° West 401 461 30,000  Level Indianapolis Center
Wed 09:44:33 AM 38.6572 -84.1586 266° West 405 466 30,000  Level Indianapolis Center
Wed 09:45:35 AM 38.6508 -84.3022 267° West 404 465 30,000  Level Indianapolis Center
Wed 09:46:37 AM 38.6594 -84.4675 274° West 396 456 30,000  Level Indianapolis Center
Wed 09:47:39 AM 38.6661 -84.5861 274° West 395 455 30,000  Level Indianapolis Center
Wed 09:48:41 AM 38.6747 -84.7536 274° West 395 455 30,000  Level Indianapolis Center
Wed 09:49:43 AM 38.6847 -84.8925 275° West 393 452 30,000  Level Indianapolis Center
Wed 09:50:45 AM 38.6914 -85.0328 274° West 395 455 30,000  Level Indianapolis Center
Wed 09:51:47 AM 38.6986 -85.1733 274° West 395 455 30,000  Level Indianapolis Center
Wed 09:52:49 AM 38.7058 -85.3128 274° West 395 455 30,000  Level Indianapolis Center
Wed 09:53:51 AM 38.7128 -85.4517 274° West 392 451 30,000  Level Indianapolis Center
Wed 09:54:53 AM 38.7214 -85.6186 274° West 393 452 30,000  Level Indianapolis Center
Wed 09:55:55 AM 38.7286 -85.7586 274° West 393 452 30,000  Level Indianapolis Center
Wed 09:56:57 AM 38.7350 -85.8978 273° West 392 451 30,000  Level Indianapolis Center
Wed 09:57:59 AM 38.7422 -86.0347 274° West 394 453 30,000  Level Indianapolis Center
Wed 09:59:01 AM 38.7483 -86.1753 273° West 394 453 30,000  Level Indianapolis Center
Wed 10:00:03 AM 38.7558 -86.3431 273° West 394 453 30,000  Level Indianapolis Center
Wed 10:01:05 AM 38.7611 -86.4831 273° West 394 453 30,000  Level Indianapolis Center
Wed 10:02:07 AM 38.7669 -86.6225 273° West 393 452 30,000  Level Indianapolis Center
Wed 10:03:09 AM 38.7722 -86.7608 273° West 391 450 30,000  Level Indianapolis Center
Wed 10:04:11 AM 38.7786 -86.9003 273° West 393 452 30,000  Level Indianapolis Center
Wed 10:05:13 AM 38.7833 -87.0389 273° West 391 450 30,000  Level Indianapolis Center
Wed 10:06:16 AM 38.7897 -87.2033 273° West 388 447 30,000  Level Indianapolis Center
Wed 10:07:18 AM 38.7944 -87.3411 273° West 388 447 30,000  Level Indianapolis Center
Wed 10:08:20 AM 38.7997 -87.4808 273° West 392 451 30,000  Level Indianapolis Center
Wed 10:09:22 AM 38.8044 -87.6269 272° West 406 467 30,000  Level Indianapolis Center
Wed 10:10:24 AM 38.8083 -87.7750 272° West 415 478 30,000  Level Indianapolis Center
Wed 10:11:26 AM 38.8136 -87.9464 272° West 403 464 30,000  Level Indianapolis Center
Wed 10:12:28 AM 38.8181 -88.0886 272° West 399 459 30,000  Level Indianapolis Center
Wed 10:13:30 AM 38.8108 -88.2297 266° West 395 455 30,000  Level Kansas City Center
Wed 10:14:32 AM 38.7769 -88.3664 252° West 400 460 30,000  Level Kansas City Center
Wed 10:15:34 AM 38.7475 -88.5022 255° West 398 458 30,000  Level Kansas City Center
Wed 10:16:36 AM 38.7214 -88.6350 256° West 390 449 30,000  Level Kansas City Center
Wed 10:17:38 AM 38.7453 -88.7900 281° West 388 447 30,000  Level Kansas City Center
Wed 10:18:40 AM 38.7711 -88.9203 284° West 383 441 30,000  Level Kansas City Center
Wed 10:19:42 AM 38.8008 -89.0672 285° West 386 444 30,000  Level Kansas City Center
Wed 10:20:44 AM 38.8258 -89.1983 284° West 382 440 30,000  Level Kansas City Center
Wed 10:21:47 AM 38.8514 -89.3289 284° West 379 436 30,000  Level Kansas City Center
Wed 10:22:49 AM 38.8789 -89.4708 284° West 382 440 30,000  Level Kansas City Center
Wed 10:23:51 AM 38.9050 -89.6028 284° West 383 441 30,000  Level Kansas City Center
Wed 10:24:53 AM 38.9319 -89.7464 284° West 386 444 30,000  Level Kansas City Center
Wed 10:25:55 AM 38.9575 -89.8817 284° West 390 449 30,000  Level Kansas City Center
Wed 10:26:57 AM 38.9814 -90.0139 283° West 403 464 30,000  Level Kansas City Center
Wed 10:27:59 AM 39.0083 -90.1567 284° West 411 473 30,000  Level Kansas City Center
Wed 10:29:01 AM 39.0394 -90.3269 283° West 414 476 30,000  Level Kansas City Center
Wed 10:30:03 AM 39.0644 -90.4653 283° West 406 467 30,000  Level Kansas City Center
Wed 10:31:05 AM 39.0911 -90.6086 284° West 412 474 30,000  Level Kansas City Center
Wed 10:32:07 AM 39.1178 -90.7544 283° West 418 481 30,000  Level Kansas City Center
Wed 10:33:08 AM 39.1439 -90.8989 283° West 418 481 30,000  Level Kansas City Center
Wed 10:34:10 AM 39.1731 -91.0683 283° West 412 474 30,000  Level Kansas City Center
Wed 10:35:12 AM 39.1972 -91.2081 283° West 406 467 30,000  Level Kansas City Center
Wed 10:36:14 AM 39.2217 -91.3475 283° West 403 464 30,000  Level Kansas City Center
Wed 10:37:16 AM 39.2464 -91.4911 283° West 408 470 30,000  Level Kansas City Center
Wed 10:38:18 AM 39.2689 -91.6286 282° West 399 459 30,000  Level Kansas City Center
Wed 10:39:20 AM 39.2933 -91.7717 282° West 382 440 30,000  Level Kansas City Center
Wed 10:40:22 AM 39.3164 -91.9031 283° West 379 436 30,000  Level Kansas City Center
Wed 10:41:24 AM 39.3400 -92.0406 283° West 388 447 30,000  Level Kansas City Center
Wed 10:42:26 AM 39.3683 -92.2081 282° West 397 457 30,000  Level Kansas City Center
Wed 10:43:28 AM 39.3903 -92.3486 281° West 399 459 30,000 -290 Level Kansas City Center
Wed 10:44:30 AM 39.4136 -92.4881 282° West 399 459 29,400 -1,065 Descending Kansas City Center
Wed 10:45:32 AM 39.4364 -92.6275 282° West 399 459 27,800 -1,500 Descending Kansas City Center
Wed 10:46:34 AM 39.4578 -92.7608 282° West 389 448 26,300 -1,452 Descending Kansas City Center
Wed 10:47:36 AM 39.4775 -92.8869 281° West 372 428 24,800 -1,597 Descending Kansas City Center
Wed 10:48:38 AM 39.5028 -93.0358 282° West 358 412 23,000 -1,597 Descending Kansas City Center
Wed 10:49:40 AM 39.5353 -93.1503 290° West 346 398 21,500 -1,452 Descending Kansas City Center
Wed 10:50:42 AM 39.5592 -93.2689 285° West 348 400 20,000 -1,452 Descending Kansas City Center
Wed 10:51:44 AM 39.5556 -93.3906 268° West 342 394 18,500 -1,415 Descending Kansas City Center
Wed 10:52:45 AM 39.5531 -93.5142 269° West 343 395 17,100 -1,415 Descending Kansas City Center
Wed 10:53:47 AM 39.5511 -93.6331 269° West 334 384 15,600 -1,500 Descending Kansas City Center
Wed 10:54:49 AM 39.5483 -93.7581 268° West 319 367 14,000 -1,597 Descending Kansas City Center
Wed 10:55:51 AM 39.5444 -93.8831 268° West 311 358 12,300 -968 Descending Kansas City Center
Wed 10:56:53 AM 39.5417 -93.9875 268° West 303 349 12,000 -145 Descending Kansas City Center
Wed 10:57:55 AM 39.5156 -94.1017 254° West 306 352 12,000  Level Kansas City Center
Wed 10:58:57 AM 39.4714 -94.1906 237° Southwest 306 352 12,000  Level Kansas City Center
Wed 10:59:59 AM 39.4189 -94.2950 237° Southwest 308 354 12,000  Level Kansas City Center
Wed 11:01:01 AM 39.3733 -94.3833 236° Southwest 310 357 12,000 -97 Level Kansas City Center
Wed 11:02:03 AM 39.3208 -94.4869 237° Southwest 308 354 11,800 -774 Descending Kansas City Center
Wed 11:03:05 AM 39.2783 -94.5692 236° Southwest 289 333 10,400 -1,161 Descending Kansas City Center
Wed 11:04:07 AM 39.2111 -94.6056 203° Southwest 258 297 9,400 -1,210 Descending Kansas City Center
Wed 11:05:09 AM 39.1425 -94.6158 187° South 258 297 7,900 -1,452 Descending Kansas City Center
Wed 11:06:11 AM 39.0925 -94.6578 213° Southwest 250 288 6,400 -1,488 Descending Kansas City Center
Wed 11:07:14 AM 39.1039 -94.7408 280° West 222 255 4,800 -1,488 Descending Kansas City Center
Wed 11:08:16 AM 39.1522 -94.7664 338° Northwest 194 223 3,300 -1,016 Descending Kansas City Center
Wed 11:09:18 AM 39.2078 -94.7547 North 180 207 2,700 -629 Descending Kansas City Center
Wed 11:10:20 AM 39.2478 -94.7433 12° North 154 177 2,000 -726 Descending Kansas City Center
Wed 11:11:22 AM 39.2856 -94.7306 15° North 129 148 1,200 -774 Descending Kansas City Center

Login

Don't have an account? Register now (free) for customized features, flight alerts, and more!